Impacts METAR Board
IDs:

KLAX - Los Angeles Intl, CA, US

Updated at: 2300 UTC 19 Jul 2018
Potential Impact None Slight Moderate High
Time 19/11Z 19/12Z 19/13Z 19/14Z 19/15Z 19/16Z 19/17Z 19/18Z 19/19Z 19/20Z 19/21Z 19/22Z 19/23Z
Temp70 70 70 71 74 77 77 78 78 78 78 77 75
Dewpt66 65 66 66 66 65 66 66 66 66 66 66 65
Altim29.95 29.96 29.96 29.97 29.96 29.97 29.98 29.97 29.97 29.96 29.95 29.95 29.94
VIS10 10 7 9 10 10 10 10 10 10 10 10 10
CIG-- -- 9 -- -- -- -- -- -- -- -- 150 150
CoverFEWFEWBKNFEWFEWCLRCLRCLRFEWFEWSCTBKNBKN
FltCatVFRVFRIFRVFRVFRVFRVFRVFRVFRVFRVFRVFRVFR
WX--------------------------
WDir2402703303400210240260260260270260250
WSpd4 4 5 3 0 4 8 10 11 11 15 14 13
WGst-- -- -- -- -- -- -- -- -- -- -- -- --
Raw hourly METARs
KLAX 191053Z 24004KT 10SM FEW012 FEW160 21/19 A2995 RMK AO2 SLP140 T02110189
KLAX 191153Z 27004KT 10SM FEW008 FEW012 21/18 A2996 RMK AO2 SLP141 T02110183 10222 20206 53001
KLAX 191253Z 33005KT 7SM FEW006 BKN009 BKN160 21/19 A2996 RMK AO2 SLP144 T02110189
KLAX 191353Z 34003KT 9SM FEW010 22/19 A2997 RMK AO2 SLP146 T02170189
KLAX 191453Z 00000KT 10SM FEW010 23/19 A2996 RMK AO2 SLP144 T02330189 50003
KLAX 191553Z 21004KT 10SM CLR 25/18 A2997 RMK AO2 SLP146 T02500183
KLAX 191653Z 24008KT 10SM CLR 25/19 A2998 RMK AO2 SLP148 T02500189
KLAX 191753Z 26010KT 10SM CLR 26/19 A2997 RMK AO2 SLP148 T02560189 10261 20211 51005
KLAX 191853Z COR 26011KT 10SM FEW010 FEW080 26/19 A2997 RMK AO2 SLP146 T02560189
KLAX 191953Z 26011KT 10SM FEW075 FEW230 26/19 A2996 RMK AO2 SLP141 CB DSNT E T02560189
KLAX 192053Z 27015KT 10SM FEW011 FEW070 SCT150 SCT230 26/19 A2995 RMK AO2 SLP139 CB DSNT NE T02560189 57009
KLAX 192153Z 26014KT 10SM SCT011 SCT070 BKN150 25/19 A2995 RMK AO2 SLP138 T02500189
KLAX 192253Z 25013KT 10SM SCT012 SCT070 BKN150 24/18 A2994 RMK AO2 SLP136 T02390183



Page loaded:  23:05 UTC  |   04:05 PM Pacific  |   05:05 PM Mountain  |   06:05 PM Central  |   07:05 PM Eastern

 

ADVISORIES

FORECASTS

FORECASTS

OBSERVATIONS

USER TOOLS

ABOUT US